航空気象通報

ウインドサーファーのための航空気象通報による風予報です。

12/20-12/22の航空気象通報

2016年12月20日 23時46分27秒 | TAF
羽田空港
TAF RJTT 201105Z 2012/2118 34008KT 9999 FEW025
BECMG 2103/2106 12010KT
BECMG 2115/2118 32004KT
日本時間20日21時-21日12時:340度から8ノットの風
12-15時:風が変化
15-24時:120度から10ノットの風
22日00-03時:風が変化
03時:320度から4ノットの風


静岡空港
TAF RJNS 201106Z 2012/2118 36005KT 9999 FEW020
BECMG 2022/2024 12005KT
BECMG 2109/2112 34005KT
日本時間20日21時-21日07時:360度から5ノットの風
07-09時:風が変化
09-18時:120度から5ノットの風
18-21時:風が変化
21時-22日03時:340度から5ノットの風


福岡空港
TAF RJFF 201107Z 2012/2118 14005KT 9999 FEW030
BECMG 2112/2115 15015KT
日本時間20日21時-21日21時:140度から5ノットの風
21-24時:風が変化
22日00-03時:150度から15ノットの風


那覇空港
TAF ROAH 201105Z 2012/2118 10007KT 9999 FEW030
日本時間20日21時-22日03時:100度から7ノットの風


石垣空港
TAF ROIG 201108Z 2012/2118 11012KT 9999 FEW015 BKN045
TEMPO 2103/2106 3500 SHRA FEW008 BKN020 FEW025CB
日本時間20日21時-22日03時:110度から12ノットの風

但し、21日12-15時の間:ときどき

マウイのカフルイ空港
PHOG 201120Z 2012/2112 VRB05KT P6SM SCT250
FM201900 06018G28KT P6SM FEW030 SCT050
FM210500 05011G16KT P6SM FEW030 SCT050 AMD LTD TO VIS AND WIND TIL 201600
ハワイ時間20日02-09時:風向不定5ノットの風
09-19時:060度から18ノット、突風28ノット
19時-21日02時:050度から11ノット、突風16ノット


サイパン空港
TAF PGSN 201120Z 2012/2112 08015G25KT P6SM VCSH FEW018 SCT035
マリアナ時間20日22時-22日22時:080度から15ノット、突風25ノット

ジャンル:
お天気
コメント   この記事についてブログを書く
この記事をはてなブックマークに追加
« 12/18-12/20の航空気象通報 | トップ | 12/22-12/24の航空気象通報 »
最近の画像もっと見る

コメントを投稿

ブログ作成者から承認されるまでコメントは反映されません。

TAF」カテゴリの最新記事